createdAt,value
2023-12-02T00:00:45.585Z,-3.95
2023-12-02T00:03:12.238Z,-3.89
2023-12-02T00:05:38.959Z,-3.85
2023-12-02T00:08:05.605Z,-3.87
2023-12-02T00:10:32.139Z,-3.83
2023-12-02T00:12:58.738Z,-3.83
2023-12-02T00:15:25.318Z,-3.83
2023-12-02T00:17:52.238Z,-3.78
2023-12-02T00:20:18.939Z,-3.76
2023-12-02T00:22:45.533Z,-3.76
2023-12-02T00:25:12.076Z,-3.77
2023-12-02T00:27:38.595Z,-3.75
2023-12-02T00:30:06.212Z,-3.72
2023-12-02T00:32:32.856Z,-3.74
2023-12-02T00:34:59.427Z,-3.78
2023-12-02T00:37:25.979Z,-3.74
2023-12-02T00:39:52.630Z,-3.75
2023-12-02T00:42:19.283Z,-3.73
2023-12-02T00:44:45.937Z,-3.78
2023-12-02T00:47:12.503Z,-3.74
2023-12-02T00:49:39.241Z,-3.75
2023-12-02T00:52:05.952Z,-3.77
2023-12-02T00:54:35.278Z,-3.85
2023-12-02T00:57:02.177Z,-3.88
2023-12-02T00:59:28.784Z,-3.92
2023-12-02T01:01:55.610Z,-3.92
2023-12-02T01:04:22.306Z,-3.94
2023-12-02T01:06:48.925Z,-3.98
2023-12-02T01:09:15.497Z,-4.02
2023-12-02T01:11:42.096Z,-3.95
2023-12-02T01:14:08.685Z,-3.95
2023-12-02T01:16:35.266Z,-3.99
2023-12-02T01:19:01.944Z,-4.00
2023-12-02T01:21:28.564Z,-3.97
2023-12-02T01:23:55.204Z,-3.94
2023-12-02T01:26:21.952Z,-3.95
2023-12-02T01:28:48.493Z,-3.92
2023-12-02T01:31:15.058Z,-3.87
2023-12-02T01:33:41.712Z,-3.92
2023-12-02T01:36:12.893Z,-3.89
2023-12-02T01:38:39.489Z,-3.93
2023-12-02T01:41:06.333Z,-3.92
2023-12-02T01:43:32.981Z,-3.94
2023-12-02T01:45:59.598Z,-3.93
2023-12-02T01:48:30.023Z,-3.95
2023-12-02T01:50:57.913Z,-3.96
2023-12-02T01:53:24.811Z,-3.96
2023-12-02T01:55:52.172Z,-4.07
2023-12-02T01:58:19.115Z,-4.01
2023-12-02T02:00:45.757Z,-4.02
2023-12-02T02:03:12.409Z,-4.00
2023-12-02T02:05:39.369Z,-4.00
2023-12-02T02:08:06.006Z,-3.99
2023-12-02T02:10:32.539Z,-4.04
2023-12-02T02:12:59.064Z,-4.06
2023-12-02T02:15:25.664Z,-4.02
2023-12-02T02:17:52.246Z,-3.98
2023-12-02T02:20:18.832Z,-4.02
2023-12-02T02:22:45.406Z,-4.00
2023-12-02T02:25:11.970Z,-4.01
2023-12-02T02:27:38.554Z,-4.02
2023-12-02T02:30:06.406Z,-4.05
2023-12-02T02:32:32.984Z,-4.04
2023-12-02T02:34:59.609Z,-4.03
2023-12-02T02:37:26.155Z,-4.09
2023-12-02T02:39:52.682Z,-4.11
2023-12-02T02:42:19.381Z,-4.06
2023-12-02T02:44:45.878Z,-4.09
2023-12-02T02:47:12.903Z,-4.08
2023-12-02T02:49:39.452Z,-4.12
2023-12-02T02:52:06.088Z,-4.13
2023-12-02T02:54:32.722Z,-4.12
2023-12-02T02:56:59.443Z,-4.14
2023-12-02T02:59:25.973Z,-4.13
2023-12-02T03:01:52.521Z,-4.12
2023-12-02T03:04:19.306Z,-4.12
2023-12-02T03:06:45.948Z,-4.13
2023-12-02T03:09:13.107Z,-4.18
2023-12-02T03:11:39.766Z,-4.19
2023-12-02T03:14:07.143Z,-4.17
2023-12-02T03:16:34.189Z,-4.18
2023-12-02T03:19:01.941Z,-4.21
2023-12-02T03:21:28.736Z,-4.24
2023-12-02T03:23:55.328Z,-4.24
2023-12-02T03:26:24.272Z,-4.23
2023-12-02T03:28:50.818Z,-4.21
2023-12-02T03:31:17.346Z,-4.19
2023-12-02T03:33:44.024Z,-4.22
2023-12-02T03:36:11.117Z,-4.22
2023-12-02T03:38:38.234Z,-4.30
2023-12-02T03:41:05.594Z,-4.34
2023-12-02T03:43:33.781Z,-4.34
2023-12-02T03:46:03.082Z,-4.34
2023-12-02T03:48:30.057Z,-4.35
2023-12-02T03:50:56.948Z,-4.37
2023-12-02T03:53:23.574Z,-4.36
2023-12-02T03:55:50.181Z,-4.36
2023-12-02T03:58:16.710Z,-4.28
2023-12-02T04:00:43.286Z,-4.26
2023-12-02T04:03:09.863Z,-4.26
2023-12-02T04:05:36.416Z,-4.27
2023-12-02T04:08:03.225Z,-4.24
2023-12-02T04:10:29.849Z,-4.24
2023-12-02T04:12:56.408Z,-4.23
2023-12-02T04:15:22.990Z,-4.21
2023-12-02T04:17:49.617Z,-4.17
2023-12-02T04:20:16.542Z,-4.16
2023-12-02T04:22:43.392Z,-4.14
2023-12-02T04:25:09.932Z,-4.10
2023-12-02T04:27:37.216Z,-4.12
2023-12-02T04:30:05.306Z,-4.12
2023-12-02T04:32:31.960Z,-4.13
2023-12-02T04:34:58.583Z,-4.19
2023-12-02T04:37:25.173Z,-4.14
2023-12-02T04:39:53.514Z,-4.10
2023-12-02T04:42:20.185Z,-4.08
2023-12-02T04:44:46.965Z,-4.12
2023-12-02T04:47:13.610Z,-4.14
2023-12-02T04:49:41.563Z,-4.11
2023-12-02T04:52:08.170Z,-4.08
2023-12-02T04:54:35.356Z,-4.11
2023-12-02T04:57:02.479Z,-4.10
2023-12-02T04:59:28.988Z,-4.08
2023-12-02T05:01:56.458Z,-4.10
2023-12-02T05:04:23.015Z,-4.12
2023-12-02T05:06:51.730Z,-4.07
2023-12-02T05:09:18.328Z,-4.16
2023-12-02T05:11:44.857Z,-4.16
2023-12-02T05:14:11.472Z,-4.18
2023-12-02T05:16:42.489Z,-4.22
2023-12-02T05:19:09.113Z,-4.24
2023-12-02T05:21:38.465Z,-4.24
2023-12-02T05:24:05.444Z,-4.29
2023-12-02T05:26:32.879Z,-4.27
2023-12-02T05:29:01.901Z,-4.30
2023-12-02T05:31:28.556Z,-4.30
2023-12-02T05:33:55.309Z,-4.30
2023-12-02T05:36:21.977Z,-4.33
2023-12-02T05:38:48.529Z,-4.33
2023-12-02T05:41:15.025Z,-4.32
2023-12-02T05:43:41.519Z,-4.39
2023-12-02T05:46:08.572Z,-4.32
2023-12-02T05:48:35.202Z,-4.33
2023-12-02T05:51:04.401Z,-4.25
2023-12-02T05:53:32.251Z,-4.26
2023-12-02T05:55:58.799Z,-4.22
2023-12-02T05:58:25.978Z,-4.30
2023-12-02T06:00:52.510Z,-4.25
2023-12-02T06:03:19.152Z,-4.30
2023-12-02T06:05:45.734Z,-4.34
2023-12-02T06:08:12.387Z,-4.32
2023-12-02T06:10:39.288Z,-4.31
2023-12-02T06:13:05.797Z,-4.32
2023-12-02T06:15:32.503Z,-4.36
2023-12-02T06:17:59.291Z,-4.39
2023-12-02T06:20:25.933Z,-4.36
2023-12-02T06:22:52.795Z,-4.33
2023-12-02T06:25:19.339Z,-4.28
2023-12-02T06:27:46.608Z,-4.19
2023-12-02T06:30:18.993Z,-4.16
2023-12-02T06:32:45.827Z,-4.25
2023-12-02T06:35:13.331Z,-4.21
2023-12-02T06:37:39.953Z,-4.23
2023-12-02T06:40:07.241Z,-4.26
2023-12-02T06:42:33.978Z,-4.29
2023-12-02T06:45:00.653Z,-4.24
2023-12-02T06:47:27.230Z,-4.23
2023-12-02T06:49:53.865Z,-4.22
2023-12-02T06:52:20.437Z,-4.26
2023-12-02T06:55:31.224Z,-4.20
2023-12-02T06:57:33.699Z,-4.22
2023-12-02T07:00:00.427Z,-4.16
2023-12-02T07:02:27.591Z,-4.15
2023-12-02T07:04:54.175Z,-4.15
2023-12-02T07:07:20.666Z,-4.12
2023-12-02T07:09:47.177Z,-4.08
2023-12-02T07:12:13.875Z,-4.02
2023-12-02T07:14:40.398Z,-3.92
2023-12-02T07:17:06.948Z,-3.89
2023-12-02T07:19:33.637Z,-3.93
2023-12-02T07:22:00.226Z,-3.94
2023-12-02T07:24:26.838Z,-3.94
2023-12-02T07:26:53.633Z,-3.94
2023-12-02T07:29:20.136Z,-3.94
2023-12-02T07:31:46.816Z,-3.97
2023-12-02T07:34:13.438Z,-3.91
2023-12-02T07:36:39.970Z,-3.96
2023-12-02T07:39:06.602Z,-3.95
2023-12-02T07:41:33.205Z,-3.96
2023-12-02T07:43:59.754Z,-3.97
2023-12-02T07:46:27.812Z,-3.98
2023-12-02T07:48:55.038Z,-3.99
2023-12-02T07:51:21.616Z,-3.97
2023-12-02T07:53:48.565Z,-3.96
2023-12-02T07:56:17.942Z,-3.92
2023-12-02T07:58:44.486Z,-3.90
2023-12-02T08:01:11.769Z,-3.90
2023-12-02T08:03:38.350Z,-3.92
2023-12-02T08:06:05.699Z,-3.90
2023-12-02T08:08:32.256Z,-3.96
2023-12-02T08:10:58.898Z,-4.00
2023-12-02T08:13:25.659Z,-4.02
2023-12-02T08:15:52.279Z,-3.98
2023-12-02T08:18:19.874Z,-3.90
2023-12-02T08:20:47.841Z,-3.86
2023-12-02T08:23:14.465Z,-3.85
2023-12-02T08:25:41.215Z,-3.85
2023-12-02T08:28:07.743Z,-3.94
2023-12-02T08:30:34.318Z,-3.93
2023-12-02T08:33:00.889Z,-3.90
2023-12-02T08:35:27.465Z,-3.91
2023-12-02T08:37:54.018Z,-3.87
2023-12-02T08:40:21.108Z,-3.87
2023-12-02T08:42:47.653Z,-3.87
2023-12-02T08:45:14.204Z,-3.88
2023-12-02T08:47:41.661Z,-3.85
2023-12-02T08:50:08.620Z,-3.86
2023-12-02T08:52:35.285Z,-3.85
2023-12-02T08:55:01.856Z,-3.84
2023-12-02T08:57:28.380Z,-3.65
2023-12-02T08:59:55.387Z,-3.64
2023-12-02T09:02:22.095Z,-3.52
2023-12-02T09:04:48.744Z,-3.54
2023-12-02T09:07:15.345Z,-3.57
2023-12-02T09:09:43.349Z,-3.50
2023-12-02T09:12:09.988Z,-3.45
2023-12-02T09:14:36.614Z,-3.45
2023-12-02T09:17:04.811Z,-3.47
2023-12-02T09:19:31.383Z,-3.44
2023-12-02T09:21:58.022Z,-3.40
2023-12-02T09:24:41.831Z,-3.34
2023-12-02T09:27:08.875Z,-3.32
2023-12-02T09:29:42.189Z,-3.25
2023-12-02T09:32:19.711Z,-3.20
2023-12-02T09:35:02.243Z,-3.23
2023-12-02T09:37:53.039Z,-3.15
2023-12-02T09:40:22.659Z,-3.18
2023-12-02T09:42:56.424Z,-3.12
2023-12-02T09:45:26.397Z,-3.08
2023-12-02T09:48:06.497Z,-3.02
2023-12-02T09:50:52.979Z,-2.96
2023-12-02T09:53:28.593Z,-2.96
2023-12-02T09:56:02.296Z,-2.95
2023-12-02T09:58:43.789Z,-2.92
2023-12-02T10:01:32.628Z,-2.91
2023-12-02T10:04:16.322Z,-2.82
2023-12-02T10:06:57.430Z,-2.76
2023-12-02T10:10:01.384Z,-2.70
2023-12-02T10:12:49.606Z,-2.67
2023-12-02T10:15:19.969Z,-2.67
2023-12-02T10:18:09.619Z,-2.67
2023-12-02T10:20:39.570Z,-2.62
2023-12-02T10:23:32.456Z,-2.54
2023-12-02T10:26:25.267Z,-2.55
2023-12-02T10:29:01.139Z,-2.55
2023-12-02T10:31:32.162Z,-2.49
2023-12-02T10:34:01.712Z,-2.48
2023-12-02T10:36:29.813Z,-2.47
2023-12-02T10:39:14.731Z,-2.46
2023-12-02T10:41:49.774Z,-2.44
2023-12-02T10:44:20.853Z,-2.45
2023-12-02T10:46:49.923Z,-2.47
2023-12-02T10:49:18.336Z,-2.51
2023-12-02T10:52:40.363Z,-2.52
2023-12-02T10:54:40.458Z,-2.40
2023-12-02T10:57:08.972Z,-2.36
2023-12-02T10:59:50.842Z,-2.31
2023-12-02T11:02:40.051Z,-2.25
2023-12-02T11:05:19.831Z,-2.31
2023-12-02T11:07:50.674Z,-2.31
2023-12-02T11:10:22.299Z,-2.33
2023-12-02T11:12:53.699Z,-2.34
2023-12-02T11:15:24.191Z,-2.33
2023-12-02T11:18:03.607Z,-2.39
2023-12-02T11:20:36.430Z,-2.40
2023-12-02T11:23:22.711Z,-2.45
2023-12-02T11:26:26.980Z,-2.40
2023-12-02T11:29:18.800Z,-2.35
2023-12-02T11:32:07.277Z,-2.41
2023-12-02T11:34:51.323Z,-2.37
2023-12-02T11:37:33.249Z,-2.34
2023-12-02T11:40:47.876Z,-2.36
2023-12-02T11:43:40.663Z,-2.37
2023-12-02T11:46:15.845Z,-2.36
2023-12-02T11:49:00.380Z,-2.39
2023-12-02T11:51:41.741Z,-2.33
2023-12-02T11:54:32.046Z,-2.28
2023-12-02T11:57:11.848Z,-2.27
2023-12-02T11:59:58.600Z,-2.26
2023-12-02T12:02:51.935Z,-2.23
2023-12-02T12:05:38.422Z,-2.23
2023-12-02T12:08:22.351Z,-2.25
2023-12-02T12:10:53.395Z,-2.24
2023-12-02T12:13:21.530Z,-2.30
2023-12-02T12:15:48.335Z,-2.29
2023-12-02T12:18:17.029Z,-2.30
2023-12-02T12:20:45.765Z,-2.24
2023-12-02T12:23:12.890Z,-2.24
2023-12-02T12:25:39.432Z,-2.27
2023-12-02T12:28:06.913Z,-2.27
2023-12-02T12:30:44.568Z,-2.29
2023-12-02T12:33:13.893Z,-2.27
2023-12-02T12:35:40.508Z,-2.25
2023-12-02T12:38:11.025Z,-2.18
2023-12-02T12:40:40.394Z,-2.19
2023-12-02T12:43:14.141Z,-2.20
2023-12-02T12:45:41.349Z,-2.15
2023-12-02T12:48:08.556Z,-2.17
2023-12-02T12:50:38.204Z,-2.11
2023-12-02T12:53:12.736Z,-2.06
2023-12-02T12:55:45.053Z,-2.02
2023-12-02T12:58:16.441Z,-2.01
2023-12-02T13:00:46.975Z,-1.97
2023-12-02T13:03:46.367Z,-1.98
2023-12-02T13:06:35.174Z,-1.97
2023-12-02T13:09:10.125Z,-1.99
2023-12-02T13:12:03.129Z,-1.98
2023-12-02T13:14:38.384Z,-1.92
2023-12-02T13:17:06.133Z,-1.89
2023-12-02T13:19:35.795Z,-1.86
2023-12-02T13:22:04.062Z,-1.88
2023-12-02T13:24:37.000Z,-1.89
2023-12-02T13:27:04.951Z,-1.78
2023-12-02T13:29:31.918Z,-1.80
2023-12-02T13:32:00.207Z,-1.66
2023-12-02T13:34:32.704Z,-1.68
2023-12-02T13:37:01.142Z,-1.62
2023-12-02T13:39:31.275Z,-1.66
2023-12-02T13:42:02.332Z,-1.58
2023-12-02T13:44:31.704Z,-1.55
2023-12-02T13:47:27.579Z,-1.55
2023-12-02T13:49:59.319Z,-1.55
2023-12-02T13:52:44.248Z,-1.64
2023-12-02T13:55:30.958Z,-1.66
2023-12-02T13:58:21.235Z,-1.64
2023-12-02T14:00:47.941Z,-1.69
2023-12-02T14:03:42.167Z,-1.75
2023-12-02T14:06:24.990Z,-1.78
2023-12-02T14:08:54.888Z,-1.75
2023-12-02T14:11:56.654Z,-1.78
2023-12-02T14:14:23.056Z,-1.75
2023-12-02T14:17:08.268Z,-1.81
2023-12-02T14:20:11.558Z,-1.71
2023-12-02T14:22:46.941Z,-1.68
2023-12-02T14:25:34.804Z,-1.71
2023-12-02T14:28:27.805Z,-1.69
2023-12-02T14:31:23.483Z,-1.74
2023-12-02T14:33:50.059Z,-1.63
2023-12-02T14:36:35.259Z,-1.69
2023-12-02T14:39:07.905Z,-1.71
2023-12-02T14:41:48.550Z,-1.76
2023-12-02T14:44:35.323Z,-1.79
2023-12-02T14:47:12.494Z,-1.80
2023-12-02T14:49:49.772Z,-1.73
2023-12-02T14:52:20.659Z,-1.71
2023-12-02T14:54:47.698Z,-1.70
2023-12-02T14:57:15.563Z,-1.73
2023-12-02T14:59:52.749Z,-1.73
2023-12-02T15:02:38.970Z,-1.72
2023-12-02T15:05:10.193Z,-1.65
2023-12-02T15:07:43.088Z,-1.63
2023-12-02T15:10:13.729Z,-1.64
2023-12-02T15:12:49.123Z,-1.65
2023-12-02T15:15:33.933Z,-1.64
2023-12-02T15:18:02.346Z,-1.69
2023-12-02T15:20:30.670Z,-1.70
2023-12-02T15:23:32.500Z,-1.66
2023-12-02T15:26:00.640Z,-1.68
2023-12-02T15:28:27.179Z,-1.70
2023-12-02T15:31:17.061Z,-1.72
2023-12-02T15:33:44.170Z,-1.74
2023-12-02T15:36:14.198Z,-1.75
2023-12-02T15:38:41.626Z,-1.78
2023-12-02T15:41:08.345Z,-1.67
2023-12-02T15:43:35.349Z,-1.64
2023-12-02T15:46:02.379Z,-1.66
2023-12-02T15:48:29.316Z,-1.63
2023-12-02T15:50:56.000Z,-1.60
2023-12-02T15:53:24.485Z,-1.63
2023-12-02T15:55:52.327Z,-1.56
2023-12-02T15:58:19.007Z,-1.53
2023-12-02T16:00:45.605Z,-1.54
2023-12-02T16:03:12.332Z,-1.53
2023-12-02T16:05:39.149Z,-1.62
2023-12-02T16:08:08.881Z,-1.62
2023-12-02T16:10:36.158Z,-1.63
2023-12-02T16:13:03.307Z,-1.54
2023-12-02T16:15:31.189Z,-1.60
2023-12-02T16:18:01.400Z,-1.59
2023-12-02T16:20:28.464Z,-1.64
2023-12-02T16:22:55.309Z,-1.67
2023-12-02T16:25:22.247Z,-1.61
2023-12-02T16:27:49.640Z,-1.68
2023-12-02T16:30:17.744Z,-1.65
2023-12-02T16:32:45.878Z,-1.70
2023-12-02T16:35:13.441Z,-1.75
2023-12-02T16:37:40.992Z,-1.75
2023-12-02T16:40:08.945Z,-1.78
2023-12-02T16:42:36.788Z,-1.78
2023-12-02T16:45:22.453Z,-1.76
2023-12-02T16:47:52.177Z,-1.73
2023-12-02T16:50:22.790Z,-1.79
2023-12-02T16:52:59.238Z,-1.70
2023-12-02T16:55:29.893Z,-1.66
2023-12-02T16:57:57.716Z,-1.66
2023-12-02T17:00:35.194Z,-1.67
2023-12-02T17:03:01.793Z,-1.63
2023-12-02T17:05:28.360Z,-1.57
2023-12-02T17:08:24.277Z,-1.55
2023-12-02T17:10:59.391Z,-1.51
2023-12-02T17:13:26.605Z,-1.47
2023-12-02T17:15:53.697Z,-1.47
2023-12-02T17:18:35.355Z,-1.50
2023-12-02T17:21:02.200Z,-1.45
2023-12-02T17:23:33.183Z,-1.50
2023-12-02T17:26:02.602Z,-1.51
2023-12-02T17:28:29.257Z,-1.49
2023-12-02T17:30:55.801Z,-1.42
2023-12-02T17:33:23.694Z,-1.47
2023-12-02T17:35:50.301Z,-1.36
2023-12-02T17:38:16.913Z,-1.37
2023-12-02T17:40:43.490Z,-1.40
2023-12-02T17:43:10.078Z,-1.39
2023-12-02T17:45:37.206Z,-1.46
2023-12-02T17:48:04.448Z,-1.45
2023-12-02T17:50:31.898Z,-1.49
2023-12-02T17:52:58.759Z,-1.53
2023-12-02T17:55:25.295Z,-1.54
2023-12-02T17:57:52.775Z,-1.49
2023-12-02T18:00:20.762Z,-1.46
2023-12-02T18:02:48.740Z,-1.47
2023-12-02T18:05:16.981Z,-1.48
2023-12-02T18:07:44.762Z,-1.41
2023-12-02T18:10:11.476Z,-1.44
2023-12-02T18:12:38.104Z,-1.40
2023-12-02T18:15:05.338Z,-1.43
2023-12-02T18:17:31.886Z,-1.44
2023-12-02T18:19:58.476Z,-1.45
2023-12-02T18:22:25.081Z,-1.39
2023-12-02T18:24:51.614Z,-1.43
2023-12-02T18:27:22.670Z,-1.45
2023-12-02T18:29:49.470Z,-1.44
2023-12-02T18:32:16.003Z,-1.40
2023-12-02T18:34:42.558Z,-1.35
2023-12-02T18:37:09.091Z,-1.33
2023-12-02T18:39:35.652Z,-1.33
2023-12-02T18:42:02.750Z,-1.35
2023-12-02T18:44:30.274Z,-1.40
2023-12-02T18:46:56.984Z,-1.42
2023-12-02T18:49:23.536Z,-1.42
2023-12-02T18:51:50.045Z,-1.46
2023-12-02T18:54:16.658Z,-1.44
2023-12-02T18:56:43.284Z,-1.41
2023-12-02T18:59:09.824Z,-1.38
2023-12-02T19:01:36.561Z,-1.34
2023-12-02T19:04:03.572Z,-1.32
2023-12-02T19:06:30.884Z,-1.34
2023-12-02T19:08:57.602Z,-1.32
2023-12-02T19:11:24.098Z,-1.37
2023-12-02T19:13:50.588Z,-1.28
2023-12-02T19:16:17.131Z,-1.30
2023-12-02T19:18:43.686Z,-1.25
2023-12-02T19:21:11.286Z,-1.30
2023-12-02T19:23:37.893Z,-1.32
2023-12-02T19:26:04.849Z,-1.27
2023-12-02T19:28:31.773Z,-1.35
2023-12-02T19:30:58.365Z,-1.33
2023-12-02T19:33:25.145Z,-1.28
2023-12-02T19:35:51.735Z,-1.27
2023-12-02T19:38:18.331Z,-1.32
2023-12-02T19:40:44.977Z,-1.27
2023-12-02T19:43:11.549Z,-1.24
2023-12-02T19:45:38.410Z,-1.27
2023-12-02T19:48:05.311Z,-1.23
2023-12-02T19:50:31.862Z,-1.31
2023-12-02T19:52:58.507Z,-1.24
2023-12-02T19:55:25.025Z,-1.24
2023-12-02T19:57:52.562Z,-1.27
2023-12-02T20:00:19.285Z,-1.24
2023-12-02T20:02:45.922Z,-1.28
2023-12-02T20:05:13.531Z,-1.23
2023-12-02T20:07:40.169Z,-1.24
2023-12-02T20:10:07.754Z,-1.22
2023-12-02T20:12:34.416Z,-1.24
2023-12-02T20:15:01.084Z,-1.25
2023-12-02T20:17:27.618Z,-1.23
2023-12-02T20:19:54.131Z,-1.22
2023-12-02T20:22:20.669Z,-1.22
2023-12-02T20:24:47.242Z,-1.22
2023-12-02T20:27:13.850Z,-1.15
2023-12-02T20:29:40.429Z,-1.16
2023-12-02T20:32:07.334Z,-1.16
2023-12-02T20:34:34.774Z,-1.10
2023-12-02T20:37:01.403Z,-1.10
2023-12-02T20:39:28.310Z,-1.12
2023-12-02T20:41:54.931Z,-1.09
2023-12-02T20:44:21.598Z,-1.07
2023-12-02T20:46:48.276Z,-1.06
2023-12-02T20:49:17.140Z,-1.06
2023-12-02T20:51:43.759Z,-1.07
2023-12-02T20:54:10.392Z,-1.09
2023-12-02T20:56:36.993Z,-1.05
2023-12-02T20:59:03.567Z,-0.98
2023-12-02T21:01:30.461Z,-1.02
2023-12-02T21:03:57.183Z,-1.06
2023-12-02T21:06:23.759Z,-1.07
2023-12-02T21:08:50.508Z,-1.09
2023-12-02T21:11:17.212Z,-1.13
2023-12-02T21:13:45.363Z,-1.14
2023-12-02T21:16:12.252Z,-1.16
2023-12-02T21:18:38.907Z,-1.19
2023-12-02T21:21:06.054Z,-1.19
2023-12-02T21:23:32.599Z,-1.24
2023-12-02T21:25:59.193Z,-1.28
2023-12-02T21:28:26.547Z,-1.31
2023-12-02T21:30:53.754Z,-1.33
2023-12-02T21:33:20.627Z,-1.35
2023-12-02T21:35:55.325Z,-1.39
2023-12-02T21:38:34.022Z,-1.42
2023-12-02T21:41:07.448Z,-1.44
2023-12-02T21:43:34.016Z,-1.44
2023-12-02T21:46:01.096Z,-1.46
2023-12-02T21:48:42.315Z,-1.45
2023-12-02T21:51:28.022Z,-1.44
2023-12-02T21:53:58.766Z,-1.45
2023-12-02T21:56:25.355Z,-1.47
2023-12-02T21:59:11.245Z,-1.51
2023-12-02T22:01:39.162Z,-1.46
2023-12-02T22:04:11.478Z,-1.46
2023-12-02T22:06:46.737Z,-1.49
2023-12-02T22:09:28.499Z,-1.46
2023-12-02T22:11:56.675Z,-1.43
2023-12-02T22:14:25.959Z,-1.40
2023-12-02T22:17:07.358Z,-1.42
2023-12-02T22:19:35.123Z,-1.43
2023-12-02T22:22:05.568Z,-1.40
2023-12-02T22:24:38.346Z,-1.43
2023-12-02T22:27:06.428Z,-1.45
2023-12-02T22:29:33.529Z,-1.45
2023-12-02T22:32:00.753Z,-1.40
2023-12-02T22:34:27.452Z,-1.40
2023-12-02T22:36:54.023Z,-1.43
2023-12-02T22:39:22.610Z,-1.46
2023-12-02T22:41:54.207Z,-1.37
2023-12-02T22:44:21.869Z,-1.43
2023-12-02T22:46:50.631Z,-1.44
2023-12-02T22:49:23.621Z,-1.44
2023-12-02T22:51:51.588Z,-1.43
2023-12-02T22:54:30.031Z,-1.46
2023-12-02T22:56:57.107Z,-1.43
2023-12-02T22:59:24.886Z,-1.45
2023-12-02T23:01:54.538Z,-1.47
2023-12-02T23:04:37.572Z,-1.53
2023-12-02T23:07:38.335Z,-1.56
2023-12-02T23:10:22.749Z,-1.59
2023-12-02T23:12:51.454Z,-1.56
2023-12-02T23:15:37.963Z,-1.59
2023-12-02T23:18:07.017Z,-1.65
2023-12-02T23:20:35.055Z,-1.69
2023-12-02T23:23:02.141Z,-1.70
2023-12-02T23:25:29.596Z,-1.72
2023-12-02T23:27:57.296Z,-1.74
2023-12-02T23:30:24.092Z,-1.81
2023-12-02T23:32:52.171Z,-1.82
2023-12-02T23:35:21.665Z,-1.83
2023-12-02T23:37:49.190Z,-1.85
2023-12-02T23:40:28.315Z,-1.90
2023-12-02T23:42:58.979Z,-1.95
2023-12-02T23:45:26.131Z,-1.96
2023-12-02T23:47:53.353Z,-1.95
2023-12-02T23:50:20.695Z,-1.98
2023-12-02T23:52:48.636Z,-2.02
2023-12-02T23:55:15.898Z,-2.08
2023-12-02T23:57:44.498Z,-2.05
